createdAt,value
2017-04-04T00:00:07.148Z,17.77
2017-04-04T00:01:05.413Z,21.70
2017-04-04T00:02:03.717Z,18.10
2017-04-04T00:03:01.977Z,19.57
2017-04-04T00:04:00.204Z,19.93
2017-04-04T00:04:58.472Z,21.45
2017-04-04T00:05:56.776Z,16.78
2017-04-04T00:06:55.014Z,18.87
2017-04-04T00:07:54.029Z,17.78
2017-04-04T00:08:52.297Z,20.87
2017-04-04T00:09:50.620Z,18.02
2017-04-04T00:10:48.877Z,19.35
2017-04-04T00:11:47.156Z,17.62
2017-04-04T00:12:45.449Z,18.92
2017-04-04T00:13:43.780Z,18.98
2017-04-04T00:14:42.046Z,17.73
2017-04-04T00:15:40.329Z,18.25
2017-04-04T00:16:38.636Z,16.58
2017-04-04T00:17:36.907Z,17.83
2017-04-04T00:18:35.213Z,20.82
2017-04-04T00:19:33.486Z,25.75
2017-04-04T00:20:32.534Z,18.65
2017-04-04T00:21:30.821Z,19.52
2017-04-04T00:22:29.154Z,19.45
2017-04-04T00:23:27.472Z,18.00
2017-04-04T00:24:26.510Z,19.78
2017-04-04T00:25:24.897Z,20.02
2017-04-04T00:26:23.189Z,18.62
2017-04-04T00:27:21.470Z,19.28
2017-04-04T00:28:20.521Z,20.25
2017-04-04T00:29:18.849Z,20.62
2017-04-04T00:30:17.520Z,17.53
2017-04-04T00:31:15.804Z,19.75
2017-04-04T00:32:14.125Z,21.55
2017-04-04T00:33:13.137Z,20.87
2017-04-04T00:34:11.566Z,20.98
2017-04-04T00:35:09.884Z,21.57
2017-04-04T00:36:08.152Z,21.23
2017-04-04T00:37:06.436Z,22.87
2017-04-04T00:38:04.773Z,29.00
2017-04-04T00:39:03.132Z,21.07
2017-04-04T00:40:01.408Z,21.37
2017-04-04T00:40:59.701Z,20.55
2017-04-04T00:41:58.015Z,20.07
2017-04-04T00:42:57.053Z,18.00
2017-04-04T00:43:55.352Z,19.77
2017-04-04T00:44:53.680Z,20.65
2017-04-04T00:45:51.980Z,20.00
2017-04-04T00:46:50.244Z,21.42
2017-04-04T00:47:48.520Z,22.10
2017-04-04T00:48:46.873Z,20.20
2017-04-04T00:49:45.140Z,21.37
2017-04-04T00:50:43.473Z,22.05
2017-04-04T00:51:41.797Z,24.18
2017-04-04T00:52:40.120Z,23.03
2017-04-04T00:53:38.438Z,19.80
2017-04-04T00:54:36.712Z,18.30
2017-04-04T00:55:34.997Z,20.63
2017-04-04T00:56:33.305Z,26.10
2017-04-04T00:57:31.625Z,23.33
2017-04-04T00:58:30.633Z,18.62
2017-04-04T00:59:28.919Z,20.10
2017-04-04T01:00:27.292Z,24.45
2017-04-04T01:01:25.644Z,23.52
2017-04-04T01:02:24.721Z,22.25
2017-04-04T01:03:23.084Z,20.67
2017-04-04T01:04:21.460Z,21.80
2017-04-04T01:05:19.792Z,23.32
2017-04-04T01:06:18.861Z,24.17
2017-04-04T01:07:17.182Z,23.38
2017-04-04T01:08:15.537Z,25.05
2017-04-04T01:09:13.880Z,22.23
2017-04-04T01:10:12.882Z,24.33
2017-04-04T01:11:11.205Z,21.97
2017-04-04T01:12:10.236Z,26.00
2017-04-04T01:13:08.477Z,28.50
2017-04-04T01:14:06.759Z,24.05
2017-04-04T01:15:05.065Z,21.88
2017-04-04T01:16:04.095Z,19.83
2017-04-04T01:17:02.349Z,24.25
2017-04-04T01:18:00.593Z,24.05
2017-04-04T01:18:58.821Z,25.18
2017-04-04T01:19:57.801Z,23.32
2017-04-04T01:20:56.808Z,25.28
2017-04-04T01:21:55.118Z,20.33
2017-04-04T01:22:53.378Z,20.20
2017-04-04T01:23:51.614Z,23.08
2017-04-04T01:24:49.882Z,24.88
2017-04-04T01:25:48.121Z,24.57
2017-04-04T01:26:47.161Z,26.08
2017-04-04T01:27:45.381Z,29.23
2017-04-04T01:28:43.639Z,24.00
2017-04-04T01:29:41.864Z,28.33
2017-04-04T01:30:40.141Z,20.93
2017-04-04T01:31:38.469Z,25.00
2017-04-04T01:32:36.754Z,21.28
2017-04-04T01:33:34.981Z,24.12
2017-04-04T01:34:33.229Z,23.57
2017-04-04T01:35:32.195Z,25.32
2017-04-04T01:36:30.428Z,24.27
2017-04-04T01:37:28.664Z,25.93
2017-04-04T01:38:26.906Z,21.23
2017-04-04T01:39:25.877Z,26.10
2017-04-04T01:40:24.859Z,20.22
2017-04-04T01:41:23.841Z,22.83
2017-04-04T01:42:22.825Z,23.50
2017-04-04T01:43:21.798Z,25.73
2017-04-04T01:44:20.792Z,23.92
2017-04-04T01:45:19.804Z,25.02
2017-04-04T01:46:18.045Z,25.43
2017-04-04T01:47:16.992Z,27.08
2017-04-04T01:48:15.278Z,24.03
2017-04-04T01:49:13.525Z,22.63
2017-04-04T01:50:11.813Z,21.62
2017-04-04T01:51:10.048Z,25.12
2017-04-04T01:52:08.277Z,26.22
2017-04-04T01:53:06.548Z,21.73
2017-04-04T01:54:04.817Z,24.07
2017-04-04T01:55:03.073Z,26.63
2017-04-04T01:56:01.325Z,24.28
2017-04-04T01:56:59.592Z,24.12
2017-04-04T01:57:58.577Z,24.37
2017-04-04T01:58:56.814Z,24.03
2017-04-04T01:59:55.177Z,25.95
2017-04-04T02:00:53.448Z,22.92
2017-04-04T02:01:51.714Z,21.12
2017-04-04T02:02:50.681Z,25.60
2017-04-04T02:03:48.944Z,25.12
2017-04-04T02:04:47.227Z,25.17
2017-04-04T02:05:45.494Z,26.95
2017-04-04T02:06:43.797Z,23.18
2017-04-04T02:07:42.105Z,28.10
2017-04-04T02:08:40.424Z,26.25
2017-04-04T02:09:39.453Z,28.35
2017-04-04T02:10:37.748Z,23.67
2017-04-04T02:11:36.737Z,25.32
2017-04-04T02:12:35.038Z,23.77
2017-04-04T02:13:33.325Z,28.85
2017-04-04T02:14:31.618Z,27.02
2017-04-04T02:15:30.468Z,26.05
2017-04-04T02:16:28.719Z,24.68
2017-04-04T02:17:27.011Z,24.45
2017-04-04T02:18:25.279Z,25.25
2017-04-04T02:19:23.675Z,29.05
2017-04-04T02:20:22.005Z,28.35
2017-04-04T02:21:21.050Z,26.08
2017-04-04T02:22:19.334Z,29.88
2017-04-04T02:23:17.634Z,29.70
2017-04-04T02:24:16.673Z,30.10
2017-04-04T02:25:14.961Z,26.82
2017-04-04T02:26:13.209Z,23.40
2017-04-04T02:27:11.453Z,27.68
2017-04-04T02:28:10.484Z,26.68
2017-04-04T02:29:08.757Z,30.75
2017-04-04T02:30:07.065Z,29.62
2017-04-04T02:31:05.388Z,28.12
2017-04-04T02:32:03.656Z,25.73
2017-04-04T02:33:02.018Z,30.15
2017-04-04T02:34:00.325Z,26.62
2017-04-04T02:34:58.596Z,29.78
2017-04-04T02:35:56.901Z,26.77
2017-04-04T02:36:55.254Z,25.95
2017-04-04T02:37:53.563Z,27.17
2017-04-04T02:38:51.863Z,27.87
2017-04-04T02:39:50.125Z,25.93
2017-04-04T02:40:48.392Z,33.70
2017-04-04T02:41:46.652Z,27.37
2017-04-04T02:42:44.964Z,27.75
2017-04-04T02:43:43.249Z,28.78
2017-04-04T02:44:41.530Z,23.12
2017-04-04T02:45:39.813Z,28.45
2017-04-04T02:46:38.108Z,33.78
2017-04-04T02:47:36.365Z,27.53
2017-04-04T02:48:34.677Z,29.25
2017-04-04T02:49:32.992Z,27.27
2017-04-04T02:50:31.276Z,26.02
2017-04-04T02:51:29.540Z,25.28
2017-04-04T02:52:28.635Z,26.23
2017-04-04T02:53:26.925Z,27.35
2017-04-04T02:54:25.223Z,26.70
2017-04-04T02:55:23.508Z,29.33
2017-04-04T02:56:21.796Z,28.47
2017-04-04T02:57:20.813Z,26.22
2017-04-04T02:58:19.092Z,26.98
2017-04-04T02:59:17.382Z,28.33
2017-04-04T03:00:16.280Z,25.52
2017-04-04T03:01:14.618Z,26.03
2017-04-04T03:02:12.894Z,26.15
2017-04-04T03:03:11.150Z,27.55
2017-04-04T03:04:09.492Z,31.92
2017-04-04T03:05:07.781Z,26.47
2017-04-04T03:06:06.656Z,28.88
2017-04-04T03:07:04.968Z,28.12
2017-04-04T03:08:04.052Z,24.23
2017-04-04T03:09:03.397Z,26.48
2017-04-04T03:10:01.773Z,25.68
2017-04-04T03:11:00.397Z,27.65
2017-04-04T03:11:59.514Z,24.53
2017-04-04T03:12:57.893Z,27.10
2017-04-04T03:13:56.209Z,25.43
2017-04-04T03:14:54.544Z,31.82
2017-04-04T03:15:52.893Z,27.47
2017-04-04T03:16:51.204Z,25.18
2017-04-04T03:17:50.268Z,22.68
2017-04-04T03:18:48.587Z,27.55
2017-04-04T03:19:46.894Z,30.28
2017-04-04T03:20:45.309Z,31.23
2017-04-04T03:21:43.709Z,24.78
2017-04-04T03:22:42.478Z,32.20
2017-04-04T03:23:41.084Z,30.22
2017-04-04T03:24:39.476Z,28.02
2017-04-04T03:25:37.883Z,25.02
2017-04-04T03:26:36.285Z,27.92
2017-04-04T03:27:34.652Z,30.48
2017-04-04T03:28:33.074Z,28.47
2017-04-04T03:29:31.477Z,30.08
2017-04-04T03:30:30.101Z,29.60
2017-04-04T03:31:28.773Z,28.90
2017-04-04T03:32:27.124Z,33.15
2017-04-04T03:33:25.565Z,30.48
2017-04-04T03:34:23.861Z,30.62
2017-04-04T03:35:22.366Z,25.75
2017-04-04T03:36:20.806Z,26.42
2017-04-04T03:37:19.278Z,28.12
2017-04-04T03:38:17.767Z,29.33
2017-04-04T03:39:16.869Z,27.88
2017-04-04T03:40:15.330Z,28.27
2017-04-04T03:41:14.438Z,29.18
2017-04-04T03:42:12.820Z,28.03
2017-04-04T03:43:11.180Z,29.68
2017-04-04T03:44:10.304Z,30.47
2017-04-04T03:45:08.669Z,29.02
2017-04-04T03:46:07.042Z,31.27
2017-04-04T03:47:05.553Z,27.22
2017-04-04T03:48:03.952Z,27.77
2017-04-04T03:49:03.006Z,31.48
2017-04-04T03:50:02.210Z,27.05
2017-04-04T03:51:00.689Z,29.58
2017-04-04T03:51:59.097Z,34.63
2017-04-04T03:52:57.504Z,27.42
2017-04-04T03:53:55.884Z,30.03
2017-04-04T03:54:54.224Z,30.22
2017-04-04T03:55:52.644Z,32.90
2017-04-04T03:56:51.018Z,30.13
2017-04-04T03:57:49.411Z,35.02
2017-04-04T03:58:47.933Z,29.85
2017-04-04T03:59:47.114Z,27.97
2017-04-04T04:00:45.617Z,33.92
2017-04-04T04:01:44.125Z,27.27
2017-04-04T04:02:42.547Z,32.15
2017-04-04T04:03:40.970Z,30.57
2017-04-04T04:04:40.272Z,27.90
2017-04-04T04:05:38.769Z,24.68
2017-04-04T04:06:37.902Z,26.50
2017-04-04T04:07:36.317Z,27.27
2017-04-04T04:08:35.549Z,30.35
2017-04-04T04:09:34.012Z,26.92
2017-04-04T04:10:33.223Z,28.23
2017-04-04T04:11:31.909Z,29.70
2017-04-04T04:12:30.345Z,30.47
2017-04-04T04:13:28.794Z,27.52
2017-04-04T04:14:27.296Z,28.98
2017-04-04T04:15:25.722Z,29.63
2017-04-04T04:16:24.910Z,29.22
2017-04-04T04:17:23.326Z,28.20
2017-04-04T04:18:21.784Z,30.67
2017-04-04T04:19:20.312Z,28.32
2017-04-04T04:20:19.532Z,33.47
2017-04-04T04:21:17.937Z,32.53
2017-04-04T04:22:16.400Z,28.78
2017-04-04T04:23:14.801Z,34.13
2017-04-04T04:24:13.237Z,31.38
2017-04-04T04:25:11.819Z,32.40
2017-04-04T04:26:10.206Z,35.65
2017-04-04T04:27:08.648Z,31.63
2017-04-04T04:28:07.129Z,31.87
2017-04-04T04:29:05.507Z,28.38
2017-04-04T04:30:03.943Z,29.53
2017-04-04T04:31:02.529Z,30.38
2017-04-04T04:32:00.892Z,28.45
2017-04-04T04:32:59.276Z,29.35
2017-04-04T04:33:57.727Z,33.00
2017-04-04T04:34:56.121Z,26.15
2017-04-04T04:35:54.500Z,32.12
2017-04-04T04:36:52.849Z,30.50
2017-04-04T04:37:51.290Z,30.30
2017-04-04T04:38:50.445Z,34.62
2017-04-04T04:39:49.680Z,31.02
2017-04-04T04:40:48.150Z,29.87
2017-04-04T04:41:46.589Z,28.72
2017-04-04T04:42:44.917Z,31.48
2017-04-04T04:43:43.426Z,30.98
2017-04-04T04:44:42.549Z,29.87
2017-04-04T04:45:40.933Z,27.07
2017-04-04T04:46:39.443Z,31.47
2017-04-04T04:47:37.877Z,29.12
2017-04-04T04:48:36.290Z,29.18
2017-04-04T04:49:35.538Z,33.15
2017-04-04T04:50:33.969Z,30.03
2017-04-04T04:51:33.137Z,32.87
2017-04-04T04:52:31.657Z,32.67
2017-04-04T04:53:30.066Z,33.75
2017-04-04T04:54:28.485Z,32.75
2017-04-04T04:55:27.650Z,35.07
2017-04-04T04:56:26.170Z,40.92
2017-04-04T04:57:24.620Z,32.70
2017-04-04T04:58:23.096Z,39.67
2017-04-04T04:59:21.565Z,38.55
2017-04-04T05:00:19.963Z,34.63
2017-04-04T05:01:18.350Z,35.53
2017-04-04T05:02:17.520Z,37.72
2017-04-04T05:03:16.116Z,33.63
2017-04-04T05:04:15.241Z,34.80
2017-04-04T05:05:13.655Z,39.95
2017-04-04T05:06:12.127Z,38.40
2017-04-04T05:07:10.632Z,30.98
2017-04-04T05:08:09.744Z,33.15
2017-04-04T05:09:08.213Z,31.82
2017-04-04T05:10:06.585Z,30.73
2017-04-04T05:11:05.021Z,32.88
2017-04-04T05:12:03.491Z,34.93
2017-04-04T05:13:03.246Z,39.15
2017-04-04T05:14:01.674Z,34.33
2017-04-04T05:15:00.064Z,35.40
2017-04-04T05:15:58.489Z,28.95
2017-04-04T05:16:56.934Z,31.32
2017-04-04T05:17:55.512Z,34.48
2017-04-04T05:18:53.889Z,37.12
2017-04-04T05:19:52.264Z,39.03
2017-04-04T05:20:50.821Z,40.85
2017-04-04T05:21:49.247Z,36.92
2017-04-04T05:22:47.734Z,34.42
2017-04-04T05:23:46.186Z,32.88
2017-04-04T05:24:44.585Z,37.37
2017-04-04T05:25:43.069Z,31.83
2017-04-04T05:26:41.512Z,38.03
2017-04-04T05:27:39.931Z,33.52
2017-04-04T05:28:38.332Z,33.90
2017-04-04T05:29:36.717Z,33.13
2017-04-04T05:30:35.075Z,34.93
2017-04-04T05:31:33.438Z,33.20
2017-04-04T05:32:31.911Z,34.45
2017-04-04T05:33:30.252Z,34.62
2017-04-04T05:34:28.640Z,33.98
2017-04-04T05:35:27.102Z,33.62
2017-04-04T05:36:25.474Z,35.33
2017-04-04T05:37:24.564Z,39.20
2017-04-04T05:38:23.785Z,36.30
2017-04-04T05:39:22.194Z,32.67
2017-04-04T05:40:20.517Z,35.52
2017-04-04T05:41:19.665Z,33.62
2017-04-04T05:42:18.198Z,31.87
2017-04-04T05:43:16.560Z,32.22
2017-04-04T05:44:15.782Z,41.33
2017-04-04T05:45:14.184Z,35.82
2017-04-04T05:46:12.654Z,33.85
2017-04-04T05:47:11.753Z,35.60
2017-04-04T05:48:10.141Z,37.12
2017-04-04T05:49:08.493Z,36.27
2017-04-04T05:50:06.921Z,34.63
2017-04-04T05:51:05.264Z,38.78
2017-04-04T05:52:03.722Z,34.68
2017-04-04T05:53:02.133Z,38.60
2017-04-04T05:54:00.518Z,36.63
2017-04-04T05:54:58.885Z,38.57
2017-04-04T05:55:57.320Z,41.12
2017-04-04T05:56:55.654Z,31.70
2017-04-04T05:57:54.028Z,34.97
2017-04-04T05:58:52.445Z,33.20
2017-04-04T05:59:50.863Z,36.83
2017-04-04T06:00:49.274Z,36.20
2017-04-04T06:01:47.697Z,43.25
2017-04-04T06:02:46.025Z,34.23
2017-04-04T06:03:44.441Z,37.12
2017-04-04T06:04:42.809Z,42.08
2017-04-04T06:05:41.319Z,34.57
2017-04-04T06:06:39.754Z,35.93
2017-04-04T06:07:38.152Z,37.78
2017-04-04T06:08:36.552Z,34.15
2017-04-04T06:09:34.921Z,38.68
2017-04-04T06:10:33.445Z,37.67
2017-04-04T06:11:31.845Z,37.40
2017-04-04T06:12:30.978Z,39.80
2017-04-04T06:13:29.388Z,35.77
2017-04-04T06:14:27.822Z,43.22
2017-04-04T06:15:26.245Z,41.00
2017-04-04T06:16:24.641Z,37.90
2017-04-04T06:17:23.139Z,36.42
2017-04-04T06:18:21.707Z,37.92
2017-04-04T06:19:20.442Z,34.40
2017-04-04T06:20:18.990Z,40.30
2017-04-04T06:21:17.792Z,37.87
2017-04-04T06:22:16.985Z,37.95
2017-04-04T06:23:15.437Z,39.25
2017-04-04T06:24:14.052Z,37.32
2017-04-04T06:25:13.229Z,36.02
2017-04-04T06:26:12.426Z,38.87
2017-04-04T06:27:10.902Z,40.33
2017-04-04T06:28:09.296Z,33.48
2017-04-04T06:29:07.678Z,34.00
2017-04-04T06:30:06.055Z,32.72
2017-04-04T06:31:04.594Z,36.00
2017-04-04T06:32:03.057Z,39.50
2017-04-04T06:33:01.487Z,36.52
2017-04-04T06:34:00.593Z,33.43
2017-04-04T06:34:58.996Z,35.27
2017-04-04T06:35:57.404Z,39.52
2017-04-04T06:36:55.788Z,36.43
2017-04-04T06:37:54.219Z,33.75
2017-04-04T06:38:52.610Z,36.68
2017-04-04T06:39:51.041Z,33.12
2017-04-04T06:40:49.453Z,31.87
2017-04-04T06:41:47.810Z,31.98
2017-04-04T06:42:46.213Z,32.97
2017-04-04T06:43:45.385Z,33.08
2017-04-04T06:44:43.791Z,33.17
2017-04-04T06:45:42.909Z,41.53
2017-04-04T06:46:41.341Z,32.82
2017-04-04T06:47:39.715Z,36.17
2017-04-04T06:48:38.848Z,37.90
2017-04-04T06:49:37.312Z,35.43
2017-04-04T06:50:36.221Z,35.87
2017-04-04T06:51:34.687Z,36.57
2017-04-04T06:52:34.297Z,35.30
2017-04-04T06:53:33.454Z,34.37
2017-04-04T06:54:31.877Z,38.32
2017-04-04T06:55:30.228Z,34.37
2017-04-04T06:56:29.349Z,32.93
2017-04-04T06:57:27.876Z,39.52
2017-04-04T06:58:26.264Z,34.05
2017-04-04T06:59:24.677Z,37.73
2017-04-04T07:00:23.198Z,35.37
2017-04-04T07:01:21.589Z,39.90
2017-04-04T07:02:21.924Z,35.65
2017-04-04T07:03:20.300Z,33.87
2017-04-04T07:04:18.650Z,33.95
2017-04-04T07:05:17.069Z,39.02
2017-04-04T07:06:15.461Z,36.42
2017-04-04T07:07:16.220Z,37.68
2017-04-04T07:08:15.074Z,36.90
2017-04-04T07:09:13.459Z,35.70
2017-04-04T07:10:12.047Z,34.08
2017-04-04T07:11:10.428Z,42.08
2017-04-04T07:12:08.911Z,33.43
2017-04-04T07:13:07.265Z,33.72
2017-04-04T07:14:05.660Z,33.43
2017-04-04T07:15:03.989Z,36.63
2017-04-04T07:16:02.438Z,36.25
2017-04-04T07:17:00.860Z,37.62
2017-04-04T07:17:59.308Z,36.57
2017-04-04T07:18:57.669Z,35.88
2017-04-04T07:19:56.105Z,34.68
2017-04-04T07:20:55.299Z,37.08
2017-04-04T07:21:54.377Z,37.33
2017-04-04T07:22:52.842Z,36.08
2017-04-04T07:23:51.330Z,35.60
2017-04-04T07:24:49.685Z,36.08
2017-04-04T07:25:48.829Z,33.60
2017-04-04T07:26:47.256Z,32.77
2017-04-04T07:27:46.393Z,34.30
2017-04-04T07:28:44.745Z,37.20
2017-04-04T07:29:43.091Z,34.00
2017-04-04T07:30:41.454Z,37.17
2017-04-04T07:31:39.854Z,36.82
2017-04-04T07:32:38.209Z,32.73
2017-04-04T07:33:36.588Z,31.03
2017-04-04T07:34:35.042Z,34.27
2017-04-04T07:35:33.537Z,33.78
2017-04-04T07:36:31.977Z,36.60
2017-04-04T07:37:30.330Z,31.33
2017-04-04T07:38:29.511Z,31.42
2017-04-04T07:39:28.009Z,35.18
2017-04-04T07:40:26.433Z,31.92
2017-04-04T07:41:27.489Z,31.57
2017-04-04T07:42:27.161Z,40.57
2017-04-04T07:43:25.593Z,32.75
2017-04-04T07:44:23.992Z,33.32
2017-04-04T07:45:22.373Z,34.92
2017-04-04T07:46:20.824Z,36.70
2017-04-04T07:47:19.244Z,37.82
2017-04-04T07:48:18.312Z,33.87
2017-04-04T07:49:17.689Z,39.37
2017-04-04T07:50:16.102Z,36.47
2017-04-04T07:51:14.648Z,36.27
2017-04-04T07:52:13.870Z,39.32
2017-04-04T07:53:12.288Z,36.80
2017-04-04T07:54:10.688Z,30.00
2017-04-04T07:55:09.081Z,32.12
2017-04-04T07:56:07.409Z,31.95
2017-04-04T07:57:05.950Z,39.62
2017-04-04T07:58:04.363Z,32.77
2017-04-04T07:59:02.837Z,36.15
2017-04-04T08:00:02.003Z,35.77
2017-04-04T08:01:00.433Z,36.27
2017-04-04T08:01:58.889Z,39.25
2017-04-04T08:02:57.413Z,36.70
2017-04-04T08:03:55.784Z,37.23
2017-04-04T08:04:54.171Z,34.70
2017-04-04T08:05:53.297Z,32.00
2017-04-04T08:06:51.672Z,32.80
2017-04-04T08:07:50.193Z,31.37
2017-04-04T08:08:48.571Z,35.95
2017-04-04T08:09:46.957Z,33.72
2017-04-04T08:10:45.360Z,37.67
2017-04-04T08:11:43.742Z,36.50
2017-04-04T08:12:42.082Z,38.15
2017-04-04T08:13:40.440Z,38.77
2017-04-04T08:14:38.802Z,35.55
2017-04-04T08:15:37.861Z,34.20
2017-04-04T08:16:36.953Z,35.27
2017-04-04T08:17:36.104Z,33.35
2017-04-04T08:18:34.482Z,33.67
2017-04-04T08:19:32.803Z,31.47
2017-04-04T08:20:31.150Z,37.18
2017-04-04T08:21:30.285Z,35.63
2017-04-04T08:22:29.893Z,29.77
2017-04-04T08:23:28.225Z,36.37
2017-04-04T08:24:26.510Z,31.88
2017-04-04T08:25:24.817Z,31.35
2017-04-04T08:26:23.082Z,32.83
2017-04-04T08:27:21.356Z,32.42
2017-04-04T08:28:19.610Z,39.25
2017-04-04T08:29:17.900Z,33.88
2017-04-04T08:30:16.953Z,33.10
2017-04-04T08:31:17.001Z,35.35
2017-04-04T08:32:15.905Z,37.25
2017-04-04T08:33:14.176Z,33.98
2017-04-04T08:34:13.298Z,38.85
2017-04-04T08:35:11.726Z,34.47
2017-04-04T08:36:10.068Z,36.20
2017-04-04T08:37:08.373Z,38.10
2017-04-04T08:38:06.620Z,32.55
2017-04-04T08:39:05.403Z,36.07
2017-04-04T08:40:03.725Z,32.53
2017-04-04T08:41:02.765Z,38.07
2017-04-04T08:42:01.164Z,31.33
2017-04-04T08:42:59.431Z,33.78
2017-04-04T08:43:57.713Z,33.35
2017-04-04T08:44:55.975Z,35.40
2017-04-04T08:45:54.272Z,34.83
2017-04-04T08:46:53.030Z,33.95
2017-04-04T08:47:51.401Z,44.27
2017-04-04T08:48:49.723Z,34.53
2017-04-04T08:49:48.024Z,28.77
2017-04-04T08:50:47.096Z,41.30
2017-04-04T08:51:45.417Z,32.52
2017-04-04T08:52:43.726Z,32.22
2017-04-04T08:53:42.181Z,32.65
2017-04-04T08:54:40.578Z,33.88
2017-04-04T08:55:38.901Z,34.67
2017-04-04T08:56:37.245Z,34.00
2017-04-04T08:57:35.570Z,32.48
2017-04-04T08:58:33.940Z,30.07
2017-04-04T08:59:32.285Z,31.43
2017-04-04T09:00:31.369Z,31.40
2017-04-04T09:01:29.765Z,29.98
2017-04-04T09:02:28.198Z,30.53
2017-04-04T09:03:26.624Z,32.10
2017-04-04T09:04:25.074Z,33.55
2017-04-04T09:05:23.461Z,29.10
2017-04-04T09:06:21.805Z,32.77
2017-04-04T09:07:20.245Z,33.42
2017-04-04T09:08:18.639Z,33.73
2017-04-04T09:09:18.244Z,34.00
2017-04-04T09:10:16.610Z,28.47
2017-04-04T09:11:14.945Z,35.60
2017-04-04T09:12:13.320Z,33.85
2017-04-04T09:13:11.721Z,29.73
2017-04-04T09:14:10.141Z,29.72
2017-04-04T09:15:10.239Z,28.83
2017-04-04T09:16:09.741Z,26.77
2017-04-04T09:17:08.095Z,27.93
2017-04-04T09:18:06.533Z,29.32
2017-04-04T09:19:04.907Z,25.45
2017-04-04T09:20:03.256Z,29.32
2017-04-04T09:21:01.717Z,26.47
2017-04-04T09:22:00.077Z,28.95
2017-04-04T09:22:58.397Z,28.60
2017-04-04T09:23:57.495Z,31.87
2017-04-04T09:24:55.881Z,31.67
2017-04-04T09:25:54.269Z,28.38
2017-04-04T09:26:53.304Z,30.13
2017-04-04T09:27:51.660Z,29.67
2017-04-04T09:28:49.981Z,28.68
2017-04-04T09:29:48.441Z,29.65
2017-04-04T09:30:47.486Z,29.55
2017-04-04T09:33:57.232Z,25.82
2017-04-04T09:34:55.509Z,25.88
2017-04-04T09:35:54.555Z,33.38
2017-04-04T09:36:52.846Z,26.20
2017-04-04T09:37:51.953Z,27.30
2017-04-04T09:38:51.046Z,25.77
2017-04-04T09:39:50.121Z,26.77
2017-04-04T09:40:48.460Z,29.98
2017-04-04T09:41:46.876Z,28.47
2017-04-04T09:42:45.192Z,28.10
2017-04-04T09:43:43.561Z,25.55
2017-04-04T09:44:41.930Z,28.00
2017-04-04T09:45:40.236Z,27.68
2017-04-04T09:46:38.558Z,29.93
2017-04-04T09:47:36.934Z,30.33
2017-04-04T09:48:35.241Z,26.98
2017-04-04T09:49:34.348Z,27.42
2017-04-04T09:50:34.175Z,29.53
2017-04-04T09:51:33.597Z,27.33
2017-04-04T09:52:32.625Z,28.17
2017-04-04T09:53:30.924Z,28.00
2017-04-04T09:54:29.241Z,29.82
2017-04-04T09:55:28.308Z,33.72
2017-04-04T09:56:26.573Z,31.42
2017-04-04T09:57:25.697Z,28.55
2017-04-04T09:58:24.117Z,34.38
2017-04-04T09:59:22.401Z,28.67
2017-04-04T10:00:20.785Z,28.13
2017-04-04T10:01:19.941Z,26.45
2017-04-04T10:02:18.237Z,31.02
2017-04-04T10:03:17.250Z,28.83
2017-04-04T10:04:15.569Z,30.62
2017-04-04T10:05:14.605Z,29.02
2017-04-04T10:06:12.889Z,28.97
2017-04-04T10:07:11.320Z,31.48
2017-04-04T10:08:09.642Z,35.10
2017-04-04T10:09:21.739Z,36.73
2017-04-04T10:10:20.973Z,31.40
2017-04-04T10:11:20.047Z,32.20
2017-04-04T10:12:18.438Z,32.80
2017-04-04T10:13:16.749Z,29.12
2017-04-04T10:14:15.169Z,34.18
2017-04-04T10:15:14.269Z,32.82
2017-04-04T10:16:12.616Z,32.58
2017-04-04T10:17:10.983Z,30.60
2017-04-04T10:18:09.444Z,33.83
2017-04-04T10:19:07.781Z,28.80
2017-04-04T10:20:06.197Z,32.73
2017-04-04T10:21:04.533Z,33.17
2017-04-04T10:22:02.884Z,32.58
2017-04-04T10:23:01.244Z,32.65
2017-04-04T10:23:59.606Z,37.50
2017-04-04T10:24:58.696Z,32.27
2017-04-04T10:25:57.078Z,36.42
2017-04-04T10:26:55.509Z,29.52
2017-04-04T10:27:53.874Z,29.00
2017-04-04T10:28:52.201Z,36.35
2017-04-04T10:29:50.581Z,31.98
2017-04-04T10:30:48.981Z,30.65
2017-04-04T10:31:47.682Z,33.42
2017-04-04T10:32:46.011Z,35.18
2017-04-04T10:33:44.436Z,31.00
2017-04-04T10:34:42.820Z,33.67
2017-04-04T10:35:41.184Z,35.63
2017-04-04T10:36:39.601Z,37.40
2017-04-04T10:37:38.288Z,32.02
2017-04-04T10:38:36.629Z,33.88
2017-04-04T10:39:34.960Z,36.40
2017-04-04T10:40:33.293Z,33.53
2017-04-04T10:41:31.749Z,29.90
2017-04-04T10:42:30.053Z,32.02
2017-04-04T10:43:28.361Z,28.68
2017-04-04T10:44:26.663Z,30.07
2017-04-04T10:45:25.733Z,32.70
2017-04-04T10:46:24.129Z,33.63
2017-04-04T10:47:22.541Z,30.47
2017-04-04T10:48:21.654Z,31.80
2017-04-04T10:49:19.992Z,30.73
2017-04-04T10:50:19.106Z,31.82
2017-04-04T10:51:17.463Z,30.50
2017-04-04T10:52:15.832Z,30.97
2017-04-04T10:53:14.921Z,33.25
2017-04-04T10:54:13.297Z,33.77
2017-04-04T10:55:11.658Z,31.47
2017-04-04T10:56:10.012Z,31.95
2017-04-04T10:57:09.233Z,31.73
2017-04-04T10:58:07.605Z,24.88
2017-04-04T10:59:05.957Z,25.72
2017-04-04T11:00:04.319Z,28.48
2017-04-04T11:01:03.395Z,25.28
2017-04-04T11:02:02.492Z,29.88
2017-04-04T11:03:01.673Z,27.57
2017-04-04T11:03:59.980Z,26.58
2017-04-04T11:04:58.317Z,25.82
2017-04-04T11:05:56.661Z,28.47
2017-04-04T11:06:55.737Z,27.70
2017-04-04T11:07:54.048Z,26.32
2017-04-04T11:08:52.401Z,29.93
2017-04-04T11:09:50.729Z,25.90
2017-04-04T11:10:49.117Z,30.50
2017-04-04T11:11:48.199Z,29.43
2017-04-04T11:12:47.298Z,26.52
2017-04-04T11:13:45.678Z,26.17
2017-04-04T11:14:43.998Z,25.68
2017-04-04T11:15:42.272Z,26.33
2017-04-04T11:16:40.713Z,32.80
2017-04-04T11:17:38.997Z,26.55
2017-04-04T11:18:37.264Z,27.87
2017-04-04T11:19:35.548Z,30.38
2017-04-04T11:20:33.836Z,29.18
2017-04-04T11:21:32.849Z,27.42
2017-04-04T11:22:31.169Z,28.48
2017-04-04T11:23:29.445Z,27.52
2017-04-04T11:24:27.727Z,25.40
2017-04-04T11:25:26.008Z,24.73
2017-04-04T11:26:24.293Z,23.48
2017-04-04T11:27:22.586Z,23.77
2017-04-04T11:28:20.881Z,24.93
2017-04-04T11:29:19.924Z,24.25
2017-04-04T11:30:18.344Z,26.02
2017-04-04T11:31:17.358Z,27.68
2017-04-04T11:32:15.683Z,25.02
2017-04-04T11:33:13.971Z,24.72
2017-04-04T11:34:13.154Z,20.37
2017-04-04T11:35:12.173Z,25.22
2017-04-04T11:36:10.455Z,28.70
2017-04-04T11:37:08.757Z,24.27
2017-04-04T11:38:07.052Z,21.60
2017-04-04T11:39:05.355Z,20.62
2017-04-04T11:40:03.664Z,20.18
2017-04-04T11:41:02.714Z,19.92
2017-04-04T11:42:00.998Z,21.08
2017-04-04T11:42:59.253Z,17.38
2017-04-04T11:43:57.549Z,21.03
2017-04-04T11:44:56.597Z,21.93
2017-04-04T11:45:54.840Z,24.93
2017-04-04T11:46:53.092Z,25.57
2017-04-04T11:47:51.393Z,27.05
2017-04-04T11:48:49.662Z,20.18
2017-04-04T11:49:47.913Z,18.38
2017-04-04T11:50:46.189Z,20.50
2017-04-04T11:51:44.497Z,22.52
2017-04-04T11:52:42.753Z,20.47
2017-04-04T11:53:40.996Z,19.47
2017-04-04T11:54:39.340Z,21.85
2017-04-04T11:55:37.596Z,22.27
2017-04-04T11:56:35.881Z,19.73
2017-04-04T11:57:34.174Z,18.98
2017-04-04T11:58:32.453Z,18.00
2017-04-04T11:59:30.697Z,20.73
2017-04-04T12:00:28.958Z,22.80
2017-04-04T12:01:27.225Z,20.03
2017-04-04T12:02:25.508Z,21.93
2017-04-04T12:03:23.873Z,18.43
2017-04-04T12:04:22.228Z,19.87
2017-04-04T12:05:20.521Z,20.10
2017-04-04T12:06:18.805Z,19.68
2017-04-04T12:07:17.101Z,16.53
2017-04-04T12:08:15.372Z,18.75
2017-04-04T12:09:14.412Z,15.68
2017-04-04T12:10:13.442Z,21.33
2017-04-04T12:11:12.453Z,19.97
2017-04-04T12:12:10.749Z,18.45
2017-04-04T12:13:09.798Z,19.88
2017-04-04T12:14:08.065Z,19.97
2017-04-04T12:15:06.388Z,20.27
2017-04-04T12:16:04.661Z,18.77
2017-04-04T12:17:03.709Z,24.92
2017-04-04T12:18:01.962Z,21.23
2017-04-04T12:19:00.252Z,19.87
2017-04-04T12:19:58.550Z,24.00
2017-04-04T12:20:56.864Z,20.52
2017-04-04T12:21:55.114Z,19.17
2017-04-04T12:22:53.385Z,21.52
2017-04-04T12:23:51.660Z,21.33
2017-04-04T12:24:49.911Z,22.33
2017-04-04T12:25:48.177Z,19.97
2017-04-04T12:26:46.550Z,37.65
2017-04-04T12:27:44.808Z,28.25
2017-04-04T12:28:43.077Z,20.22
2017-04-04T12:29:41.461Z,21.30
2017-04-04T12:30:39.745Z,18.10
2017-04-04T12:31:37.993Z,18.95
2017-04-04T12:32:36.280Z,17.62
2017-04-04T12:33:35.305Z,19.17
2017-04-04T12:34:33.569Z,17.97
2017-04-04T12:35:31.842Z,20.05